sensor_id;sensor_type;location;lat;lon;timestamp;P1;durP1;ratioP1;P2;durP2;ratioP2
48122;SDS011;33907;47.426;18.906;2023-06-10T00:00:49;19.10;;;9.90;;
48122;SDS011;33907;47.426;18.906;2023-06-10T00:03:18;17.35;;;9.52;;
48122;SDS011;33907;47.426;18.906;2023-06-10T00:05:46;14.70;;;9.85;;
48122;SDS011;33907;47.426;18.906;2023-06-10T00:08:13;13.43;;;9.10;;
48122;SDS011;33907;47.426;18.906;2023-06-10T00:10:43;11.70;;;8.48;;
48122;SDS011;33907;47.426;18.906;2023-06-10T00:13:10;15.95;;;8.98;;
48122;SDS011;33907;47.426;18.906;2023-06-10T00:15:38;15.13;;;9.10;;
48122;SDS011;33907;47.426;18.906;2023-06-10T00:18:06;12.37;;;9.00;;
48122;SDS011;33907;47.426;18.906;2023-06-10T00:20:37;17.23;;;8.88;;
48122;SDS011;33907;47.426;18.906;2023-06-10T00:23:05;12.23;;;8.75;;
48122;SDS011;33907;47.426;18.906;2023-06-10T00:25:35;14.77;;;8.40;;
48122;SDS011;33907;47.426;18.906;2023-06-10T00:28:03;13.48;;;8.02;;
48122;SDS011;33907;47.426;18.906;2023-06-10T00:30:30;11.40;;;8.18;;
48122;SDS011;33907;47.426;18.906;2023-06-10T00:32:58;17.42;;;9.18;;
48122;SDS011;33907;47.426;18.906;2023-06-10T00:35:26;16.85;;;8.48;;
48122;SDS011;33907;47.426;18.906;2023-06-10T00:37:53;12.77;;;8.77;;
48122;SDS011;33907;47.426;18.906;2023-06-10T00:40:22;10.05;;;7.85;;
48122;SDS011;33907;47.426;18.906;2023-06-10T00:42:51;12.57;;;7.70;;
48122;SDS011;33907;47.426;18.906;2023-06-10T00:45:21;12.80;;;8.07;;
48122;SDS011;33907;47.426;18.906;2023-06-10T00:47:48;10.13;;;7.32;;
48122;SDS011;33907;47.426;18.906;2023-06-10T00:50:16;9.73;;;7.62;;
48122;SDS011;33907;47.426;18.906;2023-06-10T00:52:44;13.15;;;7.40;;
48122;SDS011;33907;47.426;18.906;2023-06-10T00:55:14;11.90;;;7.65;;
48122;SDS011;33907;47.426;18.906;2023-06-10T00:57:44;10.00;;;7.18;;
48122;SDS011;33907;47.426;18.906;2023-06-10T01:00:12;9.88;;;7.30;;
48122;SDS011;33907;47.426;18.906;2023-06-10T01:02:41;9.65;;;8.23;;
48122;SDS011;33907;47.426;18.906;2023-06-10T01:05:09;10.63;;;7.68;;
48122;SDS011;33907;47.426;18.906;2023-06-10T01:07:38;10.98;;;7.62;;
48122;SDS011;33907;47.426;18.906;2023-06-10T01:10:20;15.10;;;8.38;;
48122;SDS011;33907;47.426;18.906;2023-06-10T01:12:55;13.05;;;8.27;;
48122;SDS011;33907;47.426;18.906;2023-06-10T01:15:26;12.68;;;8.23;;
48122;SDS011;33907;47.426;18.906;2023-06-10T01:17:58;9.68;;;7.07;;
48122;SDS011;33907;47.426;18.906;2023-06-10T01:20:30;8.90;;;7.53;;
48122;SDS011;33907;47.426;18.906;2023-06-10T01:22:59;11.05;;;8.38;;
48122;SDS011;33907;47.426;18.906;2023-06-10T01:25:28;13.00;;;8.02;;
48122;SDS011;33907;47.426;18.906;2023-06-10T01:30:59;12.02;;;7.10;;
48122;SDS011;33907;47.426;18.906;2023-06-10T01:33:36;14.15;;;7.55;;
48122;SDS011;33907;47.426;18.906;2023-06-10T01:36:04;19.15;;;7.43;;
48122;SDS011;33907;47.426;18.906;2023-06-10T01:38:39;10.63;;;7.30;;
48122;SDS011;33907;47.426;18.906;2023-06-10T01:41:12;11.77;;;7.12;;
48122;SDS011;33907;47.426;18.906;2023-06-10T01:43:42;12.02;;;7.40;;
48122;SDS011;33907;47.426;18.906;2023-06-10T01:46:12;14.90;;;8.35;;
48122;SDS011;33907;47.426;18.906;2023-06-10T01:48:41;13.82;;;8.27;;
48122;SDS011;33907;47.426;18.906;2023-06-10T01:51:09;11.40;;;7.53;;
48122;SDS011;33907;47.426;18.906;2023-06-10T01:53:37;13.55;;;8.90;;
48122;SDS011;33907;47.426;18.906;2023-06-10T01:56:04;11.93;;;8.27;;
48122;SDS011;33907;47.426;18.906;2023-06-10T01:58:32;11.52;;;8.00;;
48122;SDS011;33907;47.426;18.906;2023-06-10T02:01:00;13.27;;;7.80;;
48122;SDS011;33907;47.426;18.906;2023-06-10T02:03:27;11.07;;;8.90;;
48122;SDS011;33907;47.426;18.906;2023-06-10T02:05:55;10.35;;;8.15;;
48122;SDS011;33907;47.426;18.906;2023-06-10T02:08:23;14.48;;;8.15;;
48122;SDS011;33907;47.426;18.906;2023-06-10T02:10:51;12.13;;;8.98;;
48122;SDS011;33907;47.426;18.906;2023-06-10T02:13:20;11.80;;;8.40;;
48122;SDS011;33907;47.426;18.906;2023-06-10T02:15:51;13.05;;;8.55;;
48122;SDS011;33907;47.426;18.906;2023-06-10T02:18:20;13.88;;;8.93;;
48122;SDS011;33907;47.426;18.906;2023-06-10T02:20:49;12.45;;;8.90;;
48122;SDS011;33907;47.426;18.906;2023-06-10T02:23:16;13.18;;;9.25;;
48122;SDS011;33907;47.426;18.906;2023-06-10T02:25:44;14.32;;;9.13;;
48122;SDS011;33907;47.426;18.906;2023-06-10T02:28:11;14.38;;;8.77;;
48122;SDS011;33907;47.426;18.906;2023-06-10T02:30:40;15.63;;;11.10;;
48122;SDS011;33907;47.426;18.906;2023-06-10T02:33:08;15.98;;;10.32;;
48122;SDS011;33907;47.426;18.906;2023-06-10T02:35:39;15.13;;;10.68;;
48122;SDS011;33907;47.426;18.906;2023-06-10T02:38:06;14.68;;;10.18;;
48122;SDS011;33907;47.426;18.906;2023-06-10T02:40:34;13.48;;;9.90;;
48122;SDS011;33907;47.426;18.906;2023-06-10T02:43:02;19.85;;;10.80;;
48122;SDS011;33907;47.426;18.906;2023-06-10T02:45:30;17.15;;;8.80;;
48122;SDS011;33907;47.426;18.906;2023-06-10T02:47:58;12.90;;;9.38;;
48122;SDS011;33907;47.426;18.906;2023-06-10T02:50:26;12.52;;;9.63;;
48122;SDS011;33907;47.426;18.906;2023-06-10T02:52:55;12.00;;;8.75;;
48122;SDS011;33907;47.426;18.906;2023-06-10T02:55:22;14.70;;;9.18;;
48122;SDS011;33907;47.426;18.906;2023-06-10T02:57:54;12.98;;;9.63;;
48122;SDS011;33907;47.426;18.906;2023-06-10T03:00:22;12.70;;;8.82;;
48122;SDS011;33907;47.426;18.906;2023-06-10T03:02:51;13.40;;;9.38;;
48122;SDS011;33907;47.426;18.906;2023-06-10T03:05:19;13.52;;;8.68;;
48122;SDS011;33907;47.426;18.906;2023-06-10T03:07:48;11.93;;;9.07;;
48122;SDS011;33907;47.426;18.906;2023-06-10T03:10:16;13.13;;;8.40;;
48122;SDS011;33907;47.426;18.906;2023-06-10T03:12:43;12.00;;;9.07;;
48122;SDS011;33907;47.426;18.906;2023-06-10T03:15:11;12.45;;;8.60;;
48122;SDS011;33907;47.426;18.906;2023-06-10T03:17:39;11.82;;;9.00;;
48122;SDS011;33907;47.426;18.906;2023-06-10T03:20:07;12.02;;;9.23;;
48122;SDS011;33907;47.426;18.906;2023-06-10T03:22:38;13.23;;;9.43;;
48122;SDS011;33907;47.426;18.906;2023-06-10T03:25:06;75.65;;;11.73;;
48122;SDS011;33907;47.426;18.906;2023-06-10T03:27:35;125.70;;;12.00;;
48122;SDS011;33907;47.426;18.906;2023-06-10T03:30:03;13.93;;;9.20;;
48122;SDS011;33907;47.426;18.906;2023-06-10T03:32:31;14.40;;;9.15;;
48122;SDS011;33907;47.426;18.906;2023-06-10T03:34:59;14.48;;;9.75;;
48122;SDS011;33907;47.426;18.906;2023-06-10T03:37:27;15.75;;;9.75;;
48122;SDS011;33907;47.426;18.906;2023-06-10T03:39:55;11.57;;;9.13;;
48122;SDS011;33907;47.426;18.906;2023-06-10T03:42:23;11.65;;;9.40;;
48122;SDS011;33907;47.426;18.906;2023-06-10T03:44:51;12.73;;;9.02;;
48122;SDS011;33907;47.426;18.906;2023-06-10T03:47:18;14.15;;;8.57;;
48122;SDS011;33907;47.426;18.906;2023-06-10T03:49:46;13.55;;;8.73;;
48122;SDS011;33907;47.426;18.906;2023-06-10T03:52:14;10.65;;;8.15;;
48122;SDS011;33907;47.426;18.906;2023-06-10T03:54:42;11.93;;;8.23;;
48122;SDS011;33907;47.426;18.906;2023-06-10T03:57:09;11.82;;;8.02;;
48122;SDS011;33907;47.426;18.906;2023-06-10T03:59:37;12.18;;;9.10;;
48122;SDS011;33907;47.426;18.906;2023-06-10T04:02:04;10.70;;;7.43;;
48122;SDS011;33907;47.426;18.906;2023-06-10T04:04:34;16.67;;;8.18;;
48122;SDS011;33907;47.426;18.906;2023-06-10T04:07:02;14.55;;;10.13;;
48122;SDS011;33907;47.426;18.906;2023-06-10T04:09:30;12.75;;;10.13;;
48122;SDS011;33907;47.426;18.906;2023-06-10T04:11:59;16.25;;;9.95;;
48122;SDS011;33907;47.426;18.906;2023-06-10T04:14:27;12.15;;;9.50;;
48122;SDS011;33907;47.426;18.906;2023-06-10T04:16:55;14.20;;;9.77;;
48122;SDS011;33907;47.426;18.906;2023-06-10T04:19:23;12.82;;;9.32;;
48122;SDS011;33907;47.426;18.906;2023-06-10T04:21:51;12.98;;;9.25;;
48122;SDS011;33907;47.426;18.906;2023-06-10T04:24:20;12.37;;;9.55;;
48122;SDS011;33907;47.426;18.906;2023-06-10T04:26:48;13.23;;;9.10;;
48122;SDS011;33907;47.426;18.906;2023-06-10T04:29:16;14.38;;;8.45;;
48122;SDS011;33907;47.426;18.906;2023-06-10T04:31:43;10.98;;;7.93;;
48122;SDS011;33907;47.426;18.906;2023-06-10T04:34:13;12.02;;;6.82;;
48122;SDS011;33907;47.426;18.906;2023-06-10T04:36:41;9.27;;;6.78;;
48122;SDS011;33907;47.426;18.906;2023-06-10T04:39:09;7.87;;;6.07;;
48122;SDS011;33907;47.426;18.906;2023-06-10T04:41:38;9.82;;;6.20;;
48122;SDS011;33907;47.426;18.906;2023-06-10T04:44:06;6.95;;;5.03;;
48122;SDS011;33907;47.426;18.906;2023-06-10T04:46:33;8.80;;;6.37;;
48122;SDS011;33907;47.426;18.906;2023-06-10T04:49:04;8.68;;;5.43;;
48122;SDS011;33907;47.426;18.906;2023-06-10T04:51:32;6.47;;;4.57;;
48122;SDS011;33907;47.426;18.906;2023-06-10T04:53:59;7.47;;;5.20;;
48122;SDS011;33907;47.426;18.906;2023-06-10T04:56:31;6.87;;;4.95;;
48122;SDS011;33907;47.426;18.906;2023-06-10T04:59:01;6.22;;;4.78;;
48122;SDS011;33907;47.426;18.906;2023-06-10T05:04:15;8.38;;;5.18;;
48122;SDS011;33907;47.426;18.906;2023-06-10T05:06:43;8.20;;;5.47;;
48122;SDS011;33907;47.426;18.906;2023-06-10T05:09:10;7.60;;;4.50;;
48122;SDS011;33907;47.426;18.906;2023-06-10T05:11:38;7.75;;;4.30;;
48122;SDS011;33907;47.426;18.906;2023-06-10T05:14:05;7.95;;;4.90;;
48122;SDS011;33907;47.426;18.906;2023-06-10T05:16:33;8.25;;;4.68;;
48122;SDS011;33907;47.426;18.906;2023-06-10T05:19:01;8.05;;;4.30;;
48122;SDS011;33907;47.426;18.906;2023-06-10T05:21:30;8.45;;;4.43;;
48122;SDS011;33907;47.426;18.906;2023-06-10T05:23:57;6.22;;;4.40;;
48122;SDS011;33907;47.426;18.906;2023-06-10T05:26:25;6.65;;;4.43;;
48122;SDS011;33907;47.426;18.906;2023-06-10T05:28:53;8.07;;;4.70;;
48122;SDS011;33907;47.426;18.906;2023-06-10T05:31:20;7.50;;;4.25;;
48122;SDS011;33907;47.426;18.906;2023-06-10T05:33:48;6.30;;;4.32;;
48122;SDS011;33907;47.426;18.906;2023-06-10T05:36:16;10.60;;;4.45;;
48122;SDS011;33907;47.426;18.906;2023-06-10T05:38:43;10.27;;;5.05;;
48122;SDS011;33907;47.426;18.906;2023-06-10T05:41:11;9.48;;;5.10;;
48122;SDS011;33907;47.426;18.906;2023-06-10T05:43:39;7.45;;;4.78;;
48122;SDS011;33907;47.426;18.906;2023-06-10T05:46:07;7.93;;;4.68;;
48122;SDS011;33907;47.426;18.906;2023-06-10T05:48:34;8.52;;;4.12;;
48122;SDS011;33907;47.426;18.906;2023-06-10T05:51:02;9.18;;;4.65;;
48122;SDS011;33907;47.426;18.906;2023-06-10T05:53:29;8.98;;;4.30;;
48122;SDS011;33907;47.426;18.906;2023-06-10T05:55:57;6.10;;;4.03;;
48122;SDS011;33907;47.426;18.906;2023-06-10T05:58:25;7.00;;;4.37;;
48122;SDS011;33907;47.426;18.906;2023-06-10T06:00:52;7.45;;;4.05;;
48122;SDS011;33907;47.426;18.906;2023-06-10T06:03:20;10.07;;;4.20;;
48122;SDS011;33907;47.426;18.906;2023-06-10T06:05:47;5.80;;;3.85;;
48122;SDS011;33907;47.426;18.906;2023-06-10T06:08:15;7.68;;;4.32;;
48122;SDS011;33907;47.426;18.906;2023-06-10T06:10:45;9.00;;;3.80;;
48122;SDS011;33907;47.426;18.906;2023-06-10T06:13:14;6.50;;;4.62;;
48122;SDS011;33907;47.426;18.906;2023-06-10T06:15:43;9.25;;;4.80;;
48122;SDS011;33907;47.426;18.906;2023-06-10T06:18:11;8.75;;;4.15;;
48122;SDS011;33907;47.426;18.906;2023-06-10T06:20:38;6.57;;;4.60;;
48122;SDS011;33907;47.426;18.906;2023-06-10T06:23:06;6.05;;;3.50;;
48122;SDS011;33907;47.426;18.906;2023-06-10T06:25:36;12.37;;;3.72;;
48122;SDS011;33907;47.426;18.906;2023-06-10T06:28:06;7.53;;;3.87;;
48122;SDS011;33907;47.426;18.906;2023-06-10T06:30:34;6.70;;;4.10;;
48122;SDS011;33907;47.426;18.906;2023-06-10T06:33:02;6.62;;;3.80;;
48122;SDS011;33907;47.426;18.906;2023-06-10T06:35:30;5.37;;;3.50;;
48122;SDS011;33907;47.426;18.906;2023-06-10T06:37:59;5.03;;;3.35;;
48122;SDS011;33907;47.426;18.906;2023-06-10T06:40:27;6.37;;;2.97;;
48122;SDS011;33907;47.426;18.906;2023-06-10T06:42:54;8.50;;;3.50;;
48122;SDS011;33907;47.426;18.906;2023-06-10T06:45:22;6.25;;;3.90;;
48122;SDS011;33907;47.426;18.906;2023-06-10T06:47:50;5.87;;;3.55;;
48122;SDS011;33907;47.426;18.906;2023-06-10T06:50:18;9.20;;;3.55;;
48122;SDS011;33907;47.426;18.906;2023-06-10T06:52:46;9.45;;;3.62;;
48122;SDS011;33907;47.426;18.906;2023-06-10T06:55:14;5.30;;;3.20;;
48122;SDS011;33907;47.426;18.906;2023-06-10T06:57:41;6.10;;;3.75;;
48122;SDS011;33907;47.426;18.906;2023-06-10T07:00:09;6.57;;;3.65;;
48122;SDS011;33907;47.426;18.906;2023-06-10T07:02:37;13.23;;;3.90;;
48122;SDS011;33907;47.426;18.906;2023-06-10T07:05:04;6.95;;;3.60;;
48122;SDS011;33907;47.426;18.906;2023-06-10T07:07:33;7.87;;;3.70;;
48122;SDS011;33907;47.426;18.906;2023-06-10T07:10:01;7.32;;;3.80;;
48122;SDS011;33907;47.426;18.906;2023-06-10T07:12:28;7.40;;;4.32;;
48122;SDS011;33907;47.426;18.906;2023-06-10T07:14:57;7.10;;;4.25;;
48122;SDS011;33907;47.426;18.906;2023-06-10T07:17:25;8.60;;;4.18;;
48122;SDS011;33907;47.426;18.906;2023-06-10T07:19:54;6.35;;;3.75;;
48122;SDS011;33907;47.426;18.906;2023-06-10T07:22:26;7.20;;;3.72;;
48122;SDS011;33907;47.426;18.906;2023-06-10T07:24:54;8.85;;;4.45;;
48122;SDS011;33907;47.426;18.906;2023-06-10T07:27:22;7.40;;;4.32;;
48122;SDS011;33907;47.426;18.906;2023-06-10T07:29:50;7.47;;;4.00;;
48122;SDS011;33907;47.426;18.906;2023-06-10T07:32:18;5.50;;;3.72;;
48122;SDS011;33907;47.426;18.906;2023-06-10T07:34:49;8.57;;;4.05;;
48122;SDS011;33907;47.426;18.906;2023-06-10T07:37:18;7.07;;;4.45;;
48122;SDS011;33907;47.426;18.906;2023-06-10T07:39:46;8.20;;;4.30;;
48122;SDS011;33907;47.426;18.906;2023-06-10T07:42:14;6.95;;;4.30;;
48122;SDS011;33907;47.426;18.906;2023-06-10T07:44:42;6.40;;;3.95;;
48122;SDS011;33907;47.426;18.906;2023-06-10T07:47:09;10.35;;;4.55;;
48122;SDS011;33907;47.426;18.906;2023-06-10T07:49:37;7.85;;;4.28;;
48122;SDS011;33907;47.426;18.906;2023-06-10T07:52:05;6.43;;;4.57;;
48122;SDS011;33907;47.426;18.906;2023-06-10T07:54:32;7.50;;;4.47;;
48122;SDS011;33907;47.426;18.906;2023-06-10T07:57:01;7.20;;;4.68;;
48122;SDS011;33907;47.426;18.906;2023-06-10T07:59:29;6.55;;;4.45;;
48122;SDS011;33907;47.426;18.906;2023-06-10T08:01:56;7.03;;;4.80;;
48122;SDS011;33907;47.426;18.906;2023-06-10T08:04:24;7.57;;;4.15;;
48122;SDS011;33907;47.426;18.906;2023-06-10T08:06:52;7.47;;;4.40;;
48122;SDS011;33907;47.426;18.906;2023-06-10T08:09:19;8.10;;;4.10;;
48122;SDS011;33907;47.426;18.906;2023-06-10T08:11:48;6.55;;;4.47;;
48122;SDS011;33907;47.426;18.906;2023-06-10T08:14:17;7.93;;;4.30;;
48122;SDS011;33907;47.426;18.906;2023-06-10T08:16:44;7.03;;;4.18;;
48122;SDS011;33907;47.426;18.906;2023-06-10T08:19:12;8.40;;;4.30;;
48122;SDS011;33907;47.426;18.906;2023-06-10T08:21:39;6.90;;;4.32;;
48122;SDS011;33907;47.426;18.906;2023-06-10T08:24:07;8.52;;;3.85;;
48122;SDS011;33907;47.426;18.906;2023-06-10T08:26:35;6.85;;;4.32;;
48122;SDS011;33907;47.426;18.906;2023-06-10T08:29:02;7.20;;;4.03;;
48122;SDS011;33907;47.426;18.906;2023-06-10T08:31:30;5.50;;;3.87;;
48122;SDS011;33907;47.426;18.906;2023-06-10T08:33:57;7.55;;;3.70;;
48122;SDS011;33907;47.426;18.906;2023-06-10T08:36:25;6.87;;;4.10;;
48122;SDS011;33907;47.426;18.906;2023-06-10T08:38:52;5.70;;;3.72;;
48122;SDS011;33907;47.426;18.906;2023-06-10T08:41:21;4.97;;;3.78;;
48122;SDS011;33907;47.426;18.906;2023-06-10T08:46:37;6.05;;;3.58;;
48122;SDS011;33907;47.426;18.906;2023-06-10T08:49:05;7.30;;;4.18;;
48122;SDS011;33907;47.426;18.906;2023-06-10T08:51:37;5.75;;;3.78;;
48122;SDS011;33907;47.426;18.906;2023-06-10T08:54:06;6.65;;;4.03;;
48122;SDS011;33907;47.426;18.906;2023-06-10T08:56:39;6.47;;;4.60;;
48122;SDS011;33907;47.426;18.906;2023-06-10T08:59:08;6.62;;;4.53;;
48122;SDS011;33907;47.426;18.906;2023-06-10T09:01:36;7.37;;;4.22;;
48122;SDS011;33907;47.426;18.906;2023-06-10T09:04:04;7.65;;;4.25;;
48122;SDS011;33907;47.426;18.906;2023-06-10T09:06:32;8.52;;;4.40;;
48122;SDS011;33907;47.426;18.906;2023-06-10T09:09:00;10.43;;;4.78;;
48122;SDS011;33907;47.426;18.906;2023-06-10T09:11:30;6.28;;;3.95;;
48122;SDS011;33907;47.426;18.906;2023-06-10T09:13:58;9.68;;;4.65;;
48122;SDS011;33907;47.426;18.906;2023-06-10T09:16:26;7.03;;;4.53;;
48122;SDS011;33907;47.426;18.906;2023-06-10T09:18:54;7.37;;;4.15;;
48122;SDS011;33907;47.426;18.906;2023-06-10T09:21:22;6.35;;;4.12;;
48122;SDS011;33907;47.426;18.906;2023-06-10T09:23:50;8.38;;;4.75;;
48122;SDS011;33907;47.426;18.906;2023-06-10T09:26:18;7.32;;;3.60;;
48122;SDS011;33907;47.426;18.906;2023-06-10T09:28:49;6.20;;;3.92;;
48122;SDS011;33907;47.426;18.906;2023-06-10T09:31:20;6.55;;;4.10;;
48122;SDS011;33907;47.426;18.906;2023-06-10T09:33:49;5.85;;;3.80;;
48122;SDS011;33907;47.426;18.906;2023-06-10T09:36:22;7.30;;;4.07;;
48122;SDS011;33907;47.426;18.906;2023-06-10T09:38:52;6.78;;;4.30;;
48122;SDS011;33907;47.426;18.906;2023-06-10T09:41:31;5.20;;;3.37;;
48122;SDS011;33907;47.426;18.906;2023-06-10T09:44:00;7.82;;;3.83;;
48122;SDS011;33907;47.426;18.906;2023-06-10T09:46:30;5.10;;;3.58;;
48122;SDS011;33907;47.426;18.906;2023-06-10T09:49:01;7.95;;;3.83;;
48122;SDS011;33907;47.426;18.906;2023-06-10T09:51:29;6.72;;;3.83;;
48122;SDS011;33907;47.426;18.906;2023-06-10T09:53:56;5.53;;;3.70;;
48122;SDS011;33907;47.426;18.906;2023-06-10T09:56:32;5.00;;;3.25;;
48122;SDS011;33907;47.426;18.906;2023-06-10T09:59:01;6.20;;;3.45;;
48122;SDS011;33907;47.426;18.906;2023-06-10T10:01:30;5.28;;;3.28;;
48122;SDS011;33907;47.426;18.906;2023-06-10T10:03:58;5.78;;;3.45;;
48122;SDS011;33907;47.426;18.906;2023-06-10T10:06:25;7.28;;;3.70;;
48122;SDS011;33907;47.426;18.906;2023-06-10T10:08:53;5.37;;;3.22;;
48122;SDS011;33907;47.426;18.906;2023-06-10T10:11:22;5.97;;;3.35;;
48122;SDS011;33907;47.426;18.906;2023-06-10T10:13:51;6.47;;;2.90;;
48122;SDS011;33907;47.426;18.906;2023-06-10T10:16:20;5.45;;;3.10;;
48122;SDS011;33907;47.426;18.906;2023-06-10T10:18:56;5.93;;;3.65;;
48122;SDS011;33907;47.426;18.906;2023-06-10T10:21:26;8.02;;;3.50;;
48122;SDS011;33907;47.426;18.906;2023-06-10T10:24:03;5.47;;;3.00;;
48122;SDS011;33907;47.426;18.906;2023-06-10T10:26:35;7.37;;;3.33;;
48122;SDS011;33907;47.426;18.906;2023-06-10T10:29:10;5.32;;;3.22;;
48122;SDS011;33907;47.426;18.906;2023-06-10T10:31:42;8.68;;;3.67;;
48122;SDS011;33907;47.426;18.906;2023-06-10T10:34:13;4.80;;;3.17;;
48122;SDS011;33907;47.426;18.906;2023-06-10T10:36:44;7.30;;;3.45;;
48122;SDS011;33907;47.426;18.906;2023-06-10T10:39:12;4.68;;;2.97;;
48122;SDS011;33907;47.426;18.906;2023-06-10T10:41:40;7.07;;;3.03;;
48122;SDS011;33907;47.426;18.906;2023-06-10T10:44:07;4.72;;;3.10;;
48122;SDS011;33907;47.426;18.906;2023-06-10T10:46:43;5.25;;;3.33;;
48122;SDS011;33907;47.426;18.906;2023-06-10T10:49:12;10.23;;;7.47;;
48122;SDS011;33907;47.426;18.906;2023-06-10T10:51:54;14.73;;;10.40;;
48122;SDS011;33907;47.426;18.906;2023-06-10T10:54:30;13.62;;;11.43;;
48122;SDS011;33907;47.426;18.906;2023-06-10T10:57:12;16.65;;;12.05;;
48122;SDS011;33907;47.426;18.906;2023-06-10T10:59:51;13.43;;;12.02;;
48122;SDS011;33907;47.426;18.906;2023-06-10T11:02:40;14.15;;;12.48;;
48122;SDS011;33907;47.426;18.906;2023-06-10T11:05:15;13.90;;;12.05;;
48122;SDS011;33907;47.426;18.906;2023-06-10T11:07:54;14.87;;;12.13;;
48122;SDS011;33907;47.426;18.906;2023-06-10T11:10:29;13.60;;;11.75;;
48122;SDS011;33907;47.426;18.906;2023-06-10T11:12:58;14.20;;;10.80;;
48122;SDS011;33907;47.426;18.906;2023-06-10T11:15:29;12.68;;;11.02;;
48122;SDS011;33907;47.426;18.906;2023-06-10T11:18:06;15.43;;;11.25;;
48122;SDS011;33907;47.426;18.906;2023-06-10T11:31:49;10.60;;;9.25;;
48122;SDS011;33907;47.426;18.906;2023-06-10T11:34:21;13.10;;;9.57;;
48122;SDS011;33907;47.426;18.906;2023-06-10T11:36:51;10.57;;;8.35;;
48122;SDS011;33907;47.426;18.906;2023-06-10T11:39:20;10.07;;;8.75;;
48122;SDS011;33907;47.426;18.906;2023-06-10T11:41:50;9.30;;;7.30;;
48122;SDS011;33907;47.426;18.906;2023-06-10T11:44:19;8.40;;;5.95;;
48122;SDS011;33907;47.426;18.906;2023-06-10T11:46:49;11.45;;;6.50;;
48122;SDS011;33907;47.426;18.906;2023-06-10T11:49:17;9.38;;;6.95;;
48122;SDS011;33907;47.426;18.906;2023-06-10T11:51:45;8.10;;;6.18;;
48122;SDS011;33907;47.426;18.906;2023-06-10T11:54:17;9.70;;;6.40;;
48122;SDS011;33907;47.426;18.906;2023-06-10T11:56:45;10.65;;;6.53;;
48122;SDS011;33907;47.426;18.906;2023-06-10T11:59:13;11.50;;;6.10;;
48122;SDS011;33907;47.426;18.906;2023-06-10T12:01:44;9.65;;;6.25;;
48122;SDS011;33907;47.426;18.906;2023-06-10T12:04:13;7.75;;;6.03;;
48122;SDS011;33907;47.426;18.906;2023-06-10T12:06:49;8.52;;;6.00;;
48122;SDS011;33907;47.426;18.906;2023-06-10T12:09:18;7.45;;;6.20;;
48122;SDS011;33907;47.426;18.906;2023-06-10T12:11:59;10.18;;;8.60;;
48122;SDS011;33907;47.426;18.906;2023-06-10T12:20:00;12.60;;;7.75;;
48122;SDS011;33907;47.426;18.906;2023-06-10T12:22:49;9.70;;;8.20;;
48122;SDS011;33907;47.426;18.906;2023-06-10T12:25:16;10.60;;;7.85;;
48122;SDS011;33907;47.426;18.906;2023-06-10T12:27:50;12.02;;;7.30;;
48122;SDS011;33907;47.426;18.906;2023-06-10T12:30:20;8.18;;;6.95;;
48122;SDS011;33907;47.426;18.906;2023-06-10T12:32:49;10.32;;;8.60;;
48122;SDS011;33907;47.426;18.906;2023-06-10T12:35:18;10.93;;;9.60;;
48122;SDS011;33907;47.426;18.906;2023-06-10T12:40:30;12.32;;;10.63;;
48122;SDS011;33907;47.426;18.906;2023-06-10T12:42:59;12.88;;;10.52;;
48122;SDS011;33907;47.426;18.906;2023-06-10T12:45:27;12.43;;;9.90;;
48122;SDS011;33907;47.426;18.906;2023-06-10T12:48:09;11.63;;;10.25;;
48122;SDS011;33907;47.426;18.906;2023-06-10T12:50:38;13.20;;;10.75;;
48122;SDS011;33907;47.426;18.906;2023-06-10T12:53:07;16.73;;;11.80;;
48122;SDS011;33907;47.426;18.906;2023-06-10T12:55:36;12.57;;;10.82;;
48122;SDS011;33907;47.426;18.906;2023-06-10T12:58:03;12.98;;;11.10;;
48122;SDS011;33907;47.426;18.906;2023-06-10T13:00:31;12.35;;;11.05;;
48122;SDS011;33907;47.426;18.906;2023-06-10T13:03:01;13.40;;;11.00;;
48122;SDS011;33907;47.426;18.906;2023-06-10T13:05:29;9.52;;;8.23;;
48122;SDS011;33907;47.426;18.906;2023-06-10T13:07:57;12.37;;;8.20;;
48122;SDS011;33907;47.426;18.906;2023-06-10T13:10:25;9.45;;;8.40;;
48122;SDS011;33907;47.426;18.906;2023-06-10T13:12:54;9.07;;;8.05;;
48122;SDS011;33907;47.426;18.906;2023-06-10T13:15:22;10.27;;;7.87;;
48122;SDS011;33907;47.426;18.906;2023-06-10T13:17:50;7.87;;;6.12;;
48122;SDS011;33907;47.426;18.906;2023-06-10T13:20:19;10.05;;;7.70;;
48122;SDS011;33907;47.426;18.906;2023-06-10T13:22:48;9.77;;;7.12;;
48122;SDS011;33907;47.426;18.906;2023-06-10T13:25:16;8.60;;;7.15;;
48122;SDS011;33907;47.426;18.906;2023-06-10T13:27:43;7.85;;;6.05;;
48122;SDS011;33907;47.426;18.906;2023-06-10T13:30:11;7.62;;;5.80;;
48122;SDS011;33907;47.426;18.906;2023-06-10T13:32:39;8.20;;;5.87;;
48122;SDS011;33907;47.426;18.906;2023-06-10T13:35:07;8.10;;;6.20;;
48122;SDS011;33907;47.426;18.906;2023-06-10T13:37:36;8.25;;;6.35;;
48122;SDS011;33907;47.426;18.906;2023-06-10T13:40:04;11.00;;;6.00;;
48122;SDS011;33907;47.426;18.906;2023-06-10T13:42:32;6.18;;;4.20;;
48122;SDS011;33907;47.426;18.906;2023-06-10T13:45:01;5.75;;;3.97;;
48122;SDS011;33907;47.426;18.906;2023-06-10T13:47:29;8.18;;;4.60;;
48122;SDS011;33907;47.426;18.906;2023-06-10T13:49:56;7.03;;;4.28;;
48122;SDS011;33907;47.426;18.906;2023-06-10T13:52:24;11.00;;;4.50;;
48122;SDS011;33907;47.426;18.906;2023-06-10T13:54:52;5.57;;;3.40;;
48122;SDS011;33907;47.426;18.906;2023-06-10T13:57:19;5.85;;;3.80;;
48122;SDS011;33907;47.426;18.906;2023-06-10T13:59:49;7.03;;;3.85;;
48122;SDS011;33907;47.426;18.906;2023-06-10T14:02:16;5.15;;;3.67;;
48122;SDS011;33907;47.426;18.906;2023-06-10T14:04:44;5.47;;;3.12;;
48122;SDS011;33907;47.426;18.906;2023-06-10T14:07:11;5.55;;;3.42;;
48122;SDS011;33907;47.426;18.906;2023-06-10T14:09:39;8.57;;;3.87;;
48122;SDS011;33907;47.426;18.906;2023-06-10T14:12:08;18.73;;;8.57;;
48122;SDS011;33907;47.426;18.906;2023-06-10T14:14:36;7.95;;;4.15;;
48122;SDS011;33907;47.426;18.906;2023-06-10T14:17:03;6.97;;;3.28;;
48122;SDS011;33907;47.426;18.906;2023-06-10T14:19:32;5.70;;;3.80;;
48122;SDS011;33907;47.426;18.906;2023-06-10T14:22:00;5.57;;;3.58;;
48122;SDS011;33907;47.426;18.906;2023-06-10T14:24:27;5.10;;;3.70;;
48122;SDS011;33907;47.426;18.906;2023-06-10T14:26:55;7.95;;;4.07;;
48122;SDS011;33907;47.426;18.906;2023-06-10T14:29:24;6.15;;;4.32;;
48122;SDS011;33907;47.426;18.906;2023-06-10T14:31:54;8.10;;;4.45;;
48122;SDS011;33907;47.426;18.906;2023-06-10T14:34:23;6.60;;;4.45;;
48122;SDS011;33907;47.426;18.906;2023-06-10T14:36:55;6.85;;;4.25;;
48122;SDS011;33907;47.426;18.906;2023-06-10T14:39:24;5.78;;;4.30;;
48122;SDS011;33907;47.426;18.906;2023-06-10T14:41:51;7.07;;;4.25;;
48122;SDS011;33907;47.426;18.906;2023-06-10T14:44:21;10.07;;;5.40;;
48122;SDS011;33907;47.426;18.906;2023-06-10T14:46:49;8.20;;;4.60;;
48122;SDS011;33907;47.426;18.906;2023-06-10T14:49:17;6.85;;;4.82;;
48122;SDS011;33907;47.426;18.906;2023-06-10T14:51:44;6.65;;;5.18;;
48122;SDS011;33907;47.426;18.906;2023-06-10T14:54:12;7.05;;;4.40;;
48122;SDS011;33907;47.426;18.906;2023-06-10T14:56:40;6.25;;;4.87;;
48122;SDS011;33907;47.426;18.906;2023-06-10T14:59:07;7.90;;;3.90;;
48122;SDS011;33907;47.426;18.906;2023-06-10T15:01:35;6.53;;;3.97;;
48122;SDS011;33907;47.426;18.906;2023-06-10T15:04:02;6.85;;;3.85;;
48122;SDS011;33907;47.426;18.906;2023-06-10T15:06:30;7.22;;;3.62;;